Mittie, Louisiana
Current Conditions -  °F | °C
As of 6:55 PM on Sunday 23 Nov 2014 (Local Time) from KACP Reporting Station
Clear Clear  
Wind Chill: 65°   Ceiling: Unl
Heat Index: 65°   Visibility: 10mi
Dew Point: 61°   Wind: 6mph
Humidity: 86%   Direction: 190°S
Pressure: 29.61"   Gusts: NA
Location:  30.71°N, 92.91°W
Report Text: KACP 240055Z AUTO 19005KT 10SM CLR 18/16 A2961 RMK AO2 T01830160
Loading
Personal Weather Stations






























Interactive Weather Map New forecast layout! Learn more

10-Day Weather Forecast

Advertisements
Track Severe Weather on mobile